createdAt,value
2023-11-07T00:00:42.232Z,76.02
2023-11-07T00:03:12.529Z,75.91
2023-11-07T00:05:40.378Z,75.67
2023-11-07T00:08:07.849Z,75.53
2023-11-07T00:10:39.298Z,75.20
2023-11-07T00:13:07.691Z,74.84
2023-11-07T00:15:36.385Z,74.69
2023-11-07T00:18:03.850Z,74.52
2023-11-07T00:20:32.837Z,74.20
2023-11-07T00:23:00.582Z,74.33
2023-11-07T00:25:28.059Z,73.86
2023-11-07T00:27:55.166Z,73.79
2023-11-07T00:30:23.439Z,73.92
2023-11-07T00:32:53.891Z,72.98
2023-11-07T00:35:21.162Z,73.52
2023-11-07T00:37:48.353Z,73.60
2023-11-07T00:40:15.899Z,73.73
2023-11-07T00:42:43.745Z,74.57
2023-11-07T00:45:12.216Z,76.27
2023-11-07T00:47:39.616Z,77.46
2023-11-07T00:50:11.814Z,77.99
2023-11-07T00:52:39.893Z,78.29
2023-11-07T00:55:09.464Z,78.85
2023-11-07T00:57:37.796Z,79.33
2023-11-07T01:00:10.573Z,78.88
2023-11-07T01:02:40.643Z,78.39
2023-11-07T01:05:09.197Z,77.30
2023-11-07T01:07:38.222Z,75.66
2023-11-07T01:10:05.839Z,75.75
2023-11-07T01:12:33.791Z,77.23
2023-11-07T01:15:01.080Z,76.78
2023-11-07T01:17:29.846Z,76.29
2023-11-07T01:19:57.443Z,76.81
2023-11-07T01:22:26.956Z,76.06
2023-11-07T01:24:54.919Z,75.39
2023-11-07T01:27:22.421Z,75.64
2023-11-07T01:29:51.157Z,76.03
2023-11-07T01:32:20.681Z,75.21
2023-11-07T01:34:49.368Z,75.39
2023-11-07T01:37:17.676Z,74.83
2023-11-07T01:39:45.274Z,75.58
2023-11-07T01:42:13.980Z,76.09
2023-11-07T01:44:51.265Z,77.13
2023-11-07T01:47:24.879Z,77.74
2023-11-07T01:49:52.942Z,78.55
2023-11-07T01:52:21.528Z,79.00
2023-11-07T01:54:54.842Z,79.56
2023-11-07T01:57:23.824Z,79.80
2023-11-07T01:59:54.361Z,79.37
2023-11-07T02:02:23.912Z,79.45
2023-11-07T02:04:51.555Z,79.61
2023-11-07T02:07:19.621Z,79.11
2023-11-07T02:09:47.019Z,78.73
2023-11-07T02:12:14.618Z,79.41
2023-11-07T02:14:42.688Z,80.11
2023-11-07T02:17:11.098Z,79.96
2023-11-07T02:19:40.435Z,80.34
2023-11-07T02:22:27.583Z,81.09
2023-11-07T02:24:54.655Z,80.54
2023-11-07T02:27:23.683Z,80.75
2023-11-07T02:29:51.771Z,81.22
2023-11-07T02:32:23.930Z,81.15
2023-11-07T02:34:55.043Z,81.45
2023-11-07T02:37:22.469Z,81.50
2023-11-07T02:39:50.357Z,81.11
2023-11-07T02:42:18.428Z,81.11
2023-11-07T02:44:46.019Z,81.14
2023-11-07T02:47:14.216Z,81.29
2023-11-07T02:49:41.402Z,80.83
2023-11-07T02:52:08.732Z,81.21
2023-11-07T02:54:36.158Z,80.89
2023-11-07T02:57:04.559Z,80.52
2023-11-07T02:59:32.952Z,80.67
2023-11-07T03:02:04.771Z,80.62
2023-11-07T03:04:33.990Z,81.01
2023-11-07T03:07:02.061Z,80.82
2023-11-07T03:09:29.335Z,81.29
2023-11-07T03:11:56.603Z,81.49
2023-11-07T03:14:24.282Z,80.94
2023-11-07T03:16:53.254Z,81.14
2023-11-07T03:19:20.496Z,80.82
2023-11-07T03:21:47.606Z,80.57
2023-11-07T03:24:16.396Z,80.89
2023-11-07T03:26:45.427Z,80.42
2023-11-07T03:29:13.013Z,80.33
2023-11-07T03:31:41.396Z,80.53
2023-11-07T03:34:10.557Z,79.93
2023-11-07T03:36:39.904Z,79.99
2023-11-07T03:39:07.828Z,79.57
2023-11-07T03:41:35.498Z,79.34
2023-11-07T03:44:02.838Z,78.89
2023-11-07T03:46:31.446Z,79.01
2023-11-07T03:48:59.631Z,79.23
2023-11-07T03:51:27.307Z,79.81
2023-11-07T03:53:55.584Z,80.71
2023-11-07T03:56:24.129Z,81.39
2023-11-07T03:58:53.525Z,81.98
2023-11-07T04:01:20.743Z,82.75
2023-11-07T04:03:49.077Z,81.97
2023-11-07T04:06:16.647Z,82.80
2023-11-07T04:08:44.006Z,84.15
2023-11-07T04:11:11.422Z,83.56
2023-11-07T04:13:38.601Z,83.60
2023-11-07T04:16:07.354Z,83.29
2023-11-07T04:18:34.903Z,82.64
2023-11-07T04:21:05.571Z,82.20
2023-11-07T04:23:33.389Z,81.28
2023-11-07T04:26:02.813Z,82.02
2023-11-07T04:28:32.409Z,82.01
2023-11-07T04:31:00.849Z,81.63
2023-11-07T04:33:29.030Z,81.45
2023-11-07T04:35:56.340Z,81.31
2023-11-07T04:38:23.634Z,81.13
2023-11-07T04:40:50.776Z,81.40
2023-11-07T04:43:17.855Z,82.12
2023-11-07T04:45:45.022Z,81.74
2023-11-07T04:48:13.599Z,81.86
2023-11-07T04:50:41.777Z,82.53
2023-11-07T04:53:14.429Z,83.24
2023-11-07T04:55:42.980Z,83.44
2023-11-07T04:58:11.592Z,83.25
2023-11-07T05:00:39.983Z,83.81
2023-11-07T05:03:07.807Z,84.26
2023-11-07T05:05:36.615Z,84.05
2023-11-07T05:08:04.843Z,83.63
2023-11-07T05:10:37.729Z,83.24
2023-11-07T05:13:08.694Z,83.69
2023-11-07T05:15:46.529Z,83.91
2023-11-07T05:18:16.996Z,83.67
2023-11-07T05:20:45.929Z,83.26
2023-11-07T05:23:14.895Z,82.97
2023-11-07T05:25:48.684Z,83.17
2023-11-07T05:28:19.985Z,82.99
2023-11-07T05:30:47.319Z,82.07
2023-11-07T05:33:14.782Z,82.39
2023-11-07T05:35:47.929Z,82.61
2023-11-07T05:38:16.873Z,82.37
2023-11-07T05:40:44.740Z,81.93
2023-11-07T05:43:13.551Z,80.54
2023-11-07T05:45:42.854Z,79.87
2023-11-07T05:48:10.159Z,79.83
2023-11-07T05:50:38.684Z,78.79
2023-11-07T05:53:07.045Z,78.63
2023-11-07T05:55:35.224Z,78.06
2023-11-07T05:58:02.485Z,77.97
2023-11-07T06:00:30.119Z,77.96
2023-11-07T06:02:57.731Z,77.17
2023-11-07T06:05:25.061Z,77.42
2023-11-07T06:07:57.309Z,76.53
2023-11-07T06:10:27.396Z,76.86
2023-11-07T06:12:54.468Z,75.72
2023-11-07T06:15:22.072Z,75.91
2023-11-07T06:17:49.451Z,76.41
2023-11-07T06:20:19.767Z,76.05
2023-11-07T06:22:47.562Z,75.70
2023-11-07T06:25:17.999Z,75.99
2023-11-07T06:27:45.276Z,75.76
2023-11-07T06:30:14.065Z,75.31
2023-11-07T06:32:41.556Z,75.60
2023-11-07T06:35:11.246Z,75.61
2023-11-07T06:37:43.909Z,76.20
2023-11-07T06:40:17.382Z,76.50
2023-11-07T06:42:48.633Z,76.35
2023-11-07T06:45:21.373Z,75.73
2023-11-07T06:47:53.843Z,75.14
2023-11-07T06:50:24.082Z,75.16
2023-11-07T06:52:57.169Z,74.47
2023-11-07T06:55:41.340Z,75.01
2023-11-07T06:58:13.064Z,74.89
2023-11-07T07:01:13.395Z,74.14
2023-11-07T07:03:47.475Z,73.51
2023-11-07T07:06:17.610Z,72.98
2023-11-07T07:08:44.923Z,72.72
2023-11-07T07:11:15.904Z,71.77
2023-11-07T07:13:43.253Z,72.30
2023-11-07T07:16:15.027Z,72.07
2023-11-07T07:18:44.060Z,71.45
2023-11-07T07:21:12.502Z,70.81
2023-11-07T07:23:48.847Z,70.10
2023-11-07T07:26:20.138Z,69.89
2023-11-07T07:28:48.231Z,69.68
2023-11-07T07:31:21.324Z,70.13
2023-11-07T07:33:48.598Z,69.67
2023-11-07T07:36:19.543Z,69.78
2023-11-07T07:39:38.634Z,68.75
2023-11-07T07:42:15.442Z,69.39
2023-11-07T07:44:55.236Z,68.76
2023-11-07T07:47:26.432Z,67.64
2023-11-07T07:49:56.307Z,66.63
2023-11-07T07:52:25.155Z,66.09
2023-11-07T07:55:07.129Z,65.78
2023-11-07T07:57:43.442Z,65.92
2023-11-07T08:00:26.025Z,65.37
2023-11-07T08:02:58.877Z,65.09
2023-11-07T08:05:32.911Z,64.31
2023-11-07T08:08:02.801Z,64.00
2023-11-07T08:10:30.514Z,63.22
2023-11-07T08:13:02.993Z,63.20
2023-11-07T08:15:31.966Z,63.44
2023-11-07T08:18:09.785Z,62.78
2023-11-07T08:20:46.545Z,62.66
2023-11-07T08:23:35.035Z,62.09
2023-11-07T08:26:11.611Z,61.53
2023-11-07T08:28:44.980Z,61.33
2023-11-07T08:31:15.717Z,61.11
2023-11-07T08:33:45.568Z,61.14
2023-11-07T08:36:15.681Z,61.26
2023-11-07T08:38:47.617Z,60.82
2023-11-07T08:41:21.710Z,60.76
2023-11-07T08:43:50.550Z,60.44
2023-11-07T08:46:39.102Z,59.74
2023-11-07T08:49:36.870Z,59.55
2023-11-07T08:52:13.896Z,58.61
2023-11-07T08:54:44.395Z,58.10
2023-11-07T08:57:12.947Z,58.12
2023-11-07T08:59:46.809Z,58.09
2023-11-07T09:02:17.811Z,57.76
2023-11-07T09:07:36.871Z,57.88
2023-11-07T09:10:04.566Z,56.65
2023-11-07T09:12:33.487Z,57.65
2023-11-07T09:15:06.892Z,58.03
2023-11-07T09:17:40.182Z,58.35
2023-11-07T09:20:13.491Z,58.61
2023-11-07T09:22:43.600Z,58.90
2023-11-07T09:25:19.021Z,59.71
2023-11-07T09:28:01.774Z,60.19
2023-11-07T09:30:49.471Z,61.52
2023-11-07T09:33:17.854Z,62.51
2023-11-07T09:35:44.998Z,63.71
2023-11-07T09:38:12.604Z,62.62
2023-11-07T09:40:45.695Z,62.22
2023-11-07T09:43:13.745Z,62.88
2023-11-07T09:45:42.456Z,63.54
2023-11-07T09:48:12.129Z,62.97
2023-11-07T09:50:47.812Z,62.82
2023-11-07T09:53:19.160Z,62.81
2023-11-07T09:55:51.077Z,61.95
2023-11-07T09:58:29.620Z,62.31
2023-11-07T10:01:01.062Z,63.05
2023-11-07T10:03:33.067Z,64.69
2023-11-07T10:06:04.929Z,64.39
2023-11-07T10:08:35.747Z,65.11
2023-11-07T10:11:17.651Z,64.75
2023-11-07T10:14:04.553Z,66.55
2023-11-07T10:16:43.747Z,67.50
2023-11-07T10:19:17.896Z,66.42
2023-11-07T10:21:48.394Z,66.45
2023-11-07T10:24:18.435Z,67.57
2023-11-07T10:27:00.548Z,67.56
2023-11-07T10:29:38.250Z,68.85
2023-11-07T10:32:16.914Z,68.08
2023-11-07T10:34:45.938Z,67.88
2023-11-07T10:37:13.200Z,66.08
2023-11-07T10:39:41.469Z,66.85
2023-11-07T10:42:21.033Z,67.27
2023-11-07T10:45:02.272Z,67.73
2023-11-07T10:47:47.235Z,66.29
2023-11-07T10:50:18.958Z,65.94
2023-11-07T10:52:49.436Z,65.77
2023-11-07T10:55:19.806Z,65.76
2023-11-07T10:57:59.511Z,65.58
2023-11-07T11:01:03.432Z,65.33
2023-11-07T11:04:10.544Z,65.23
2023-11-07T11:06:43.296Z,64.96
2023-11-07T11:09:12.409Z,64.37
2023-11-07T11:11:43.225Z,65.22
2023-11-07T11:14:10.944Z,63.13
2023-11-07T11:16:42.400Z,63.56
2023-11-07T11:19:55.168Z,63.04
2023-11-07T11:22:43.677Z,63.42
2023-11-07T11:25:38.423Z,64.87
2023-11-07T11:28:06.927Z,63.78
2023-11-07T11:30:40.144Z,63.17
2023-11-07T11:33:16.082Z,62.95
2023-11-07T11:35:47.984Z,62.78
2023-11-07T11:38:17.768Z,62.80
2023-11-07T11:41:05.628Z,62.49
2023-11-07T11:43:43.562Z,62.45
2023-11-07T11:46:14.766Z,62.27
2023-11-07T11:48:52.483Z,61.45
2023-11-07T11:52:16.728Z,61.49
2023-11-07T12:04:41.960Z,61.93
2023-11-07T12:07:33.919Z,60.76
2023-11-07T12:10:08.191Z,61.82
2023-11-07T12:12:39.102Z,62.42
2023-11-07T12:15:24.373Z,62.36
2023-11-07T12:17:53.432Z,61.84
2023-11-07T12:20:21.122Z,61.63
2023-11-07T12:22:52.413Z,61.89
2023-11-07T12:25:23.541Z,61.01
2023-11-07T12:28:07.899Z,60.99
2023-11-07T12:30:40.555Z,60.96
2023-11-07T12:33:11.064Z,60.88
2023-11-07T12:35:42.120Z,60.35
2023-11-07T12:38:11.904Z,59.55
2023-11-07T12:40:41.589Z,60.18
2023-11-07T12:43:10.098Z,60.41
2023-11-07T12:45:41.087Z,60.54
2023-11-07T12:48:12.160Z,60.20
2023-11-07T12:50:45.621Z,59.60
2023-11-07T12:53:19.406Z,58.84
2023-11-07T12:55:55.986Z,59.13
2023-11-07T12:58:31.715Z,59.66
2023-11-07T13:01:02.125Z,59.50
2023-11-07T13:03:35.183Z,60.23
2023-11-07T13:06:45.912Z,60.21
2023-11-07T13:09:33.530Z,60.43
2023-11-07T13:15:32.660Z,60.21
2023-11-07T13:18:26.373Z,60.58
2023-11-07T13:21:21.721Z,60.89
2023-11-07T13:23:55.304Z,60.54
2023-11-07T13:26:35.019Z,61.03
2023-11-07T13:29:07.555Z,61.53
2023-11-07T13:31:37.267Z,61.10
2023-11-07T13:34:07.060Z,60.57
2023-11-07T13:36:36.378Z,60.26
2023-11-07T13:39:06.516Z,60.30
2023-11-07T13:41:37.861Z,60.31
2023-11-07T13:44:07.936Z,60.56
2023-11-07T13:46:38.460Z,60.14
2023-11-07T13:49:10.553Z,60.41
2023-11-07T13:51:42.713Z,60.81
2023-11-07T13:54:11.015Z,60.50
2023-11-07T13:56:42.149Z,60.40
2023-11-07T13:59:10.154Z,60.13
2023-11-07T14:01:41.908Z,60.47
2023-11-07T14:04:10.936Z,60.35
2023-11-07T14:06:39.885Z,60.14
2023-11-07T14:09:11.308Z,60.96
2023-11-07T14:11:43.828Z,60.37
2023-11-07T14:14:13.110Z,60.72
2023-11-07T14:16:49.577Z,60.34
2023-11-07T14:19:19.536Z,60.91
2023-11-07T14:21:48.636Z,61.15
2023-11-07T14:24:18.240Z,60.49
2023-11-07T14:26:46.337Z,61.62
2023-11-07T14:31:47.140Z,62.77
2023-11-07T14:34:15.811Z,62.74
2023-11-07T14:36:44.688Z,63.91
2023-11-07T14:39:14.144Z,63.37
2023-11-07T14:41:44.381Z,63.63
2023-11-07T14:44:16.553Z,63.53
2023-11-07T14:46:47.483Z,64.11
2023-11-07T14:49:18.968Z,64.91
2023-11-07T14:51:48.067Z,64.79
2023-11-07T14:54:15.554Z,64.67
2023-11-07T15:00:10.712Z,64.91
2023-11-07T15:02:39.837Z,64.58
2023-11-07T15:05:13.592Z,64.38
2023-11-07T15:13:43.244Z,65.65
2023-11-07T15:16:12.247Z,65.48
2023-11-07T15:18:44.026Z,65.67
2023-11-07T15:21:13.001Z,65.75
2023-11-07T15:23:41.193Z,66.26
2023-11-07T15:26:09.920Z,66.88
2023-11-07T15:28:40.813Z,66.90
2023-11-07T15:31:08.539Z,67.11
2023-11-07T15:33:49.178Z,67.21
2023-11-07T15:36:20.267Z,67.38
2023-11-07T15:38:50.862Z,67.21
2023-11-07T15:41:18.978Z,66.84
2023-11-07T15:43:57.984Z,67.13
2023-11-07T15:46:27.382Z,68.02
2023-11-07T15:48:55.020Z,67.85
2023-11-07T15:51:24.585Z,67.90
2023-11-07T15:53:55.126Z,68.85
2023-11-07T15:56:23.056Z,68.83
2023-11-07T15:58:50.153Z,68.96
2023-11-07T16:01:19.203Z,68.99
2023-11-07T16:03:48.092Z,69.55
2023-11-07T16:06:21.066Z,70.05
2023-11-07T16:08:50.576Z,69.88
2023-11-07T16:11:18.004Z,69.92
2023-11-07T16:13:46.211Z,70.45
2023-11-07T16:16:14.636Z,70.72
2023-11-07T16:18:42.032Z,71.42
2023-11-07T16:21:10.300Z,71.38
2023-11-07T16:23:37.349Z,71.54
2023-11-07T16:26:05.508Z,71.22
2023-11-07T16:28:32.589Z,71.01
2023-11-07T16:31:00.782Z,71.17
2023-11-07T16:33:28.684Z,70.99
2023-11-07T16:36:07.431Z,70.98
2023-11-07T16:38:34.682Z,71.33
2023-11-07T16:41:02.016Z,71.25
2023-11-07T16:54:03.770Z,71.63
2023-11-07T16:56:32.095Z,71.05
2023-11-07T16:59:00.563Z,70.35
2023-11-07T17:01:31.742Z,71.30
2023-11-07T17:03:59.319Z,71.15
2023-11-07T17:23:13.693Z,74.77
2023-11-07T17:25:46.073Z,74.43
2023-11-07T17:28:13.848Z,73.52
2023-11-07T17:30:44.516Z,73.64
2023-11-07T17:33:13.517Z,74.42
2023-11-07T17:35:43.532Z,74.61
2023-11-07T17:38:15.404Z,74.03
2023-11-07T17:40:43.002Z,73.51
2023-11-07T17:46:41.146Z,73.77
2023-11-07T17:49:13.039Z,73.44
2023-11-07T17:51:44.953Z,73.46
2023-11-07T17:54:19.406Z,73.31
2023-11-07T17:56:46.931Z,73.88
2023-11-07T17:59:16.026Z,74.10
2023-11-07T18:01:49.823Z,74.54
2023-11-07T18:04:17.027Z,74.84
2023-11-07T18:06:49.265Z,75.17
2023-11-07T18:09:16.786Z,74.88
2023-11-07T18:11:48.487Z,75.91
2023-11-07T18:14:18.128Z,75.69
2023-11-07T18:16:47.693Z,75.41
2023-11-07T18:19:15.384Z,75.75
2023-11-07T18:21:46.218Z,75.02
2023-11-07T18:24:13.449Z,74.85
2023-11-07T18:26:47.605Z,74.55
2023-11-07T18:29:17.510Z,74.58
2023-11-07T18:31:49.569Z,74.06
2023-11-07T18:34:23.256Z,74.78
2023-11-07T18:37:08.434Z,74.51
2023-11-07T18:39:37.579Z,74.24
2023-11-07T18:42:05.398Z,74.27
2023-11-07T18:44:37.049Z,74.01
2023-11-07T18:47:05.218Z,73.90
2023-11-07T18:49:36.987Z,74.37
2023-11-07T18:52:06.390Z,74.41
2023-11-07T18:54:34.798Z,74.75
2023-11-07T18:57:16.178Z,75.66
2023-11-07T18:59:44.691Z,76.38
2023-11-07T19:02:14.780Z,77.13
2023-11-07T19:04:44.500Z,76.50
2023-11-07T19:07:13.886Z,76.96
2023-11-07T19:09:42.178Z,76.61
2023-11-07T19:12:09.665Z,76.32
2023-11-07T19:14:42.380Z,76.75
2023-11-07T19:17:15.447Z,77.33
2023-11-07T19:19:43.558Z,78.96
2023-11-07T19:22:19.531Z,79.48
2023-11-07T19:24:59.168Z,80.46
2023-11-07T19:27:27.034Z,80.75
2023-11-07T19:29:56.327Z,80.96
2023-11-07T19:33:22.198Z,80.06
2023-11-07T19:35:50.873Z,80.98
2023-11-07T19:38:20.021Z,81.28
2023-11-07T19:45:12.185Z,79.68
2023-11-07T19:47:39.873Z,79.90
2023-11-07T19:50:13.123Z,79.87
2023-11-07T19:52:46.165Z,79.39
2023-11-07T19:55:16.217Z,79.91
2023-11-07T19:57:45.048Z,79.90
2023-11-07T20:00:25.311Z,79.78
2023-11-07T20:02:54.143Z,79.22
2023-11-07T20:05:24.783Z,78.81
2023-11-07T20:07:57.086Z,79.09
2023-11-07T20:10:27.333Z,78.26
2023-11-07T20:12:54.401Z,78.47
2023-11-07T20:15:21.675Z,78.81
2023-11-07T20:18:41.051Z,79.96
2023-11-07T20:21:08.455Z,80.39
2023-11-07T20:23:36.245Z,80.86
2023-11-07T20:26:06.478Z,81.11
2023-11-07T20:28:34.772Z,81.18
2023-11-07T20:31:04.980Z,81.12
2023-11-07T20:33:41.584Z,80.73
2023-11-07T20:36:20.613Z,80.77
2023-11-07T20:38:54.218Z,81.92
2023-11-07T20:41:22.250Z,83.32
2023-11-07T20:43:51.423Z,84.39
2023-11-07T20:46:33.049Z,85.03
2023-11-07T20:49:05.083Z,85.57
2023-11-07T20:51:33.497Z,85.13
2023-11-07T20:54:05.217Z,85.00
2023-11-07T20:56:36.098Z,85.14
2023-11-07T20:59:04.393Z,84.23
2023-11-07T21:01:32.543Z,83.80
2023-11-07T21:04:01.300Z,82.59
2023-11-07T21:06:29.234Z,81.78
2023-11-07T21:08:57.011Z,81.62
2023-11-07T21:11:24.254Z,81.64
2023-11-07T21:13:52.710Z,81.26
2023-11-07T21:16:21.047Z,80.71
2023-11-07T21:18:50.574Z,79.35
2023-11-07T21:21:18.180Z,80.75
2023-11-07T21:23:46.351Z,82.46
2023-11-07T21:26:15.221Z,82.79
2023-11-07T21:28:45.958Z,82.58
2023-11-07T21:31:13.990Z,82.87
2023-11-07T21:33:42.362Z,82.76
2023-11-07T21:36:10.602Z,82.40
2023-11-07T21:38:40.167Z,82.10
2023-11-07T21:41:07.535Z,80.61
2023-11-07T21:43:34.797Z,80.16
2023-11-07T21:46:01.852Z,81.86
2023-11-07T21:48:29.398Z,82.25
2023-11-07T21:50:59.009Z,82.77
2023-11-07T21:53:28.851Z,82.52
2023-11-07T21:56:00.146Z,81.99
2023-11-07T21:58:31.821Z,82.30
2023-11-07T22:00:59.114Z,82.79
2023-11-07T22:03:28.162Z,83.02
2023-11-07T22:05:56.538Z,83.47
2023-11-07T22:08:26.915Z,83.40
2023-11-07T22:10:56.017Z,82.80
2023-11-07T22:13:27.927Z,81.87
2023-11-07T22:16:00.417Z,81.75
2023-11-07T22:18:30.027Z,83.05
2023-11-07T22:20:58.378Z,82.87
2023-11-07T22:23:25.387Z,83.39
2023-11-07T22:25:52.811Z,84.16
2023-11-07T22:28:21.894Z,84.01
2023-11-07T22:30:53.904Z,85.46
2023-11-07T22:33:26.273Z,86.44
2023-11-07T22:35:57.189Z,86.11
2023-11-07T22:38:25.853Z,85.31
2023-11-07T22:40:54.980Z,83.52
2023-11-07T22:43:24.592Z,82.63
2023-11-07T22:45:52.370Z,81.49
2023-11-07T22:48:23.391Z,82.25
2023-11-07T22:50:53.586Z,81.65
2023-11-07T22:53:21.892Z,82.79
2023-11-07T22:55:59.776Z,83.19
2023-11-07T22:58:28.902Z,82.75
2023-11-07T23:00:57.581Z,82.76
2023-11-07T23:03:27.080Z,84.07
2023-11-07T23:05:56.719Z,85.99
2023-11-07T23:08:24.022Z,85.58
2023-11-07T23:10:51.882Z,86.47
2023-11-07T23:13:23.943Z,85.54
2023-11-07T23:15:55.490Z,85.23
2023-11-07T23:18:23.447Z,85.49
2023-11-07T23:20:56.422Z,86.65
2023-11-07T23:23:27.178Z,87.94
2023-11-07T23:25:54.350Z,88.00
2023-11-07T23:28:22.043Z,88.57
2023-11-07T23:30:50.423Z,88.71
2023-11-07T23:33:20.015Z,89.16
2023-11-07T23:35:47.517Z,88.65
2023-11-07T23:38:19.471Z,89.81
2023-11-07T23:40:48.523Z,88.67
2023-11-07T23:43:17.394Z,88.71
2023-11-07T23:45:46.177Z,88.75
2023-11-07T23:48:13.658Z,88.25
2023-11-07T23:50:42.268Z,88.30
2023-11-07T23:53:11.410Z,87.79
2023-11-07T23:55:41.090Z,87.16
2023-11-07T23:58:08.122Z,86.41
